Terminal Aerodrome Forecast
Issued by NWS

Home | Current Version | Previous Version | Text Only | Print | Product List | Glossary On
Versions: 1 2 3 4 5 6 7 8 9 10 11 12 13 14 15 16
000
FTUS46 KSEW 260500
TAFPAE
TAF
KPAE 260539Z 2606/2706 VRB04KT 1/4SM FG VV001
     FM261600 14006KT 4SM BR SCT002 BKN005
     FM261800 16008KT P6SM BKN200=

USA.gov is the U.S. government's official web portal to all federal, state and local government web resources and services.